createdAt,value
2018-09-28T00:01:23.370Z,5.47
2018-09-28T00:03:58.379Z,7.57
2018-09-28T00:06:32.702Z,5.90
2018-09-28T00:09:09.243Z,9.20
2018-09-28T00:11:43.583Z,4.17
2018-09-28T00:14:18.786Z,5.73
2018-09-28T00:16:53.189Z,8.20
2018-09-28T00:19:28.214Z,6.23
2018-09-28T00:22:02.680Z,6.10
2018-09-28T00:24:37.654Z,4.90
2018-09-28T00:27:11.976Z,5.33
2018-09-28T00:29:47.056Z,5.63
2018-09-28T00:32:22.455Z,4.90
2018-09-28T00:34:56.849Z,5.50
2018-09-28T00:37:31.501Z,7.60
2018-09-28T00:40:06.768Z,6.13
2018-09-28T00:42:41.972Z,5.90
2018-09-28T00:45:17.151Z,5.53
2018-09-28T00:47:51.463Z,4.80
2018-09-28T00:50:26.392Z,5.80
2018-09-28T00:53:02.130Z,4.70
2018-09-28T00:55:36.620Z,4.10
2018-09-28T00:58:11.523Z,5.67
2018-09-28T01:03:26.687Z,6.17
2018-09-28T01:06:01.127Z,5.40
2018-09-28T01:08:35.567Z,6.20
2018-09-28T01:11:09.851Z,5.10
2018-09-28T01:13:44.734Z,5.33
2018-09-28T01:16:19.109Z,5.70
2018-09-28T01:18:53.539Z,7.53
2018-09-28T01:21:35.802Z,7.23
2018-09-28T01:24:10.660Z,7.23
2018-09-28T01:26:45.003Z,6.17
2018-09-28T01:29:19.931Z,4.73
2018-09-28T01:31:54.767Z,6.30
2018-09-28T01:34:29.392Z,5.10
2018-09-28T01:37:03.906Z,5.43
2018-09-28T01:39:39.227Z,5.17
2018-09-28T01:42:14.772Z,5.90
2018-09-28T01:44:50.211Z,6.10
2018-09-28T01:47:25.784Z,5.30
2018-09-28T01:50:01.317Z,4.83
2018-09-28T01:52:42.211Z,6.37
2018-09-28T01:55:16.555Z,7.80
2018-09-28T01:57:52.069Z,5.10
2018-09-28T02:00:26.372Z,5.80
2018-09-28T02:03:01.824Z,4.70
2018-09-28T02:05:36.350Z,5.67
2018-09-28T02:08:10.712Z,5.27
2018-09-28T02:10:45.103Z,4.90
2018-09-28T02:13:20.482Z,5.30
2018-09-28T02:15:55.113Z,7.27
2018-09-28T02:18:30.303Z,6.50
2018-09-28T02:21:05.435Z,6.33
2018-09-28T02:23:39.828Z,5.67
2018-09-28T02:26:14.408Z,7.33
2018-09-28T02:28:49.640Z,4.83
2018-09-28T02:31:25.056Z,5.90
2018-09-28T02:34:00.473Z,5.30
2018-09-28T02:39:16.384Z,5.23
2018-09-28T02:41:50.836Z,5.83
2018-09-28T02:44:26.195Z,6.17
2018-09-28T02:47:00.719Z,5.40
2018-09-28T02:49:35.940Z,8.63
2018-09-28T02:52:10.610Z,6.83
2018-09-28T02:54:46.001Z,8.07
2018-09-28T02:57:21.399Z,9.33
2018-09-28T02:59:55.952Z,8.27
2018-09-28T03:02:31.319Z,5.70
2018-09-28T03:05:05.771Z,9.70
2018-09-28T03:07:40.184Z,8.10
2018-09-28T03:10:15.504Z,5.83
2018-09-28T03:12:51.159Z,5.83
2018-09-28T03:15:25.692Z,6.27
2018-09-28T03:18:01.224Z,6.70
2018-09-28T03:20:35.758Z,7.23
2018-09-28T03:23:10.673Z,6.87
2018-09-28T03:25:45.424Z,6.20
2018-09-28T03:28:21.164Z,5.93
2018-09-28T03:30:56.727Z,7.70
2018-09-28T03:33:32.143Z,7.27
2018-09-28T03:36:07.213Z,6.93
2018-09-28T03:38:42.988Z,10.30
2018-09-28T03:41:17.472Z,7.50
2018-09-28T03:43:52.371Z,7.87
2018-09-28T03:46:27.281Z,6.87
2018-09-28T03:49:02.779Z,10.13
2018-09-28T03:51:37.090Z,10.13
2018-09-28T03:54:12.758Z,6.37
2018-09-28T03:56:47.292Z,6.20
2018-09-28T03:59:22.407Z,8.27
2018-09-28T04:01:57.860Z,9.10
2018-09-28T04:04:32.263Z,8.70
2018-09-28T04:07:06.807Z,10.13
2018-09-28T04:09:41.126Z,6.93
2018-09-28T04:12:16.609Z,7.27
2018-09-28T04:14:50.948Z,8.90
2018-09-28T04:17:25.568Z,7.03
2018-09-28T04:20:00.708Z,8.77
2018-09-28T04:22:35.224Z,10.63
2018-09-28T04:25:09.547Z,5.93
2018-09-28T04:27:43.894Z,9.70
2018-09-28T04:33:05.359Z,10.40
2018-09-28T04:35:39.917Z,9.43
2018-09-28T04:38:14.286Z,8.47
2018-09-28T04:40:49.542Z,7.20
2018-09-28T04:43:24.579Z,8.03
2018-09-28T04:45:59.596Z,8.13
2018-09-28T04:48:40.072Z,10.53
2018-09-28T04:51:14.526Z,7.20
2018-09-28T04:53:49.766Z,9.00
2018-09-28T04:56:24.109Z,6.27
2018-09-28T04:58:59.226Z,9.93
2018-09-28T05:01:34.176Z,9.57
2018-09-28T05:04:08.561Z,10.60
2018-09-28T05:06:43.044Z,8.60
2018-09-28T05:09:17.465Z,8.07
2018-09-28T05:11:52.437Z,7.80
2018-09-28T05:14:27.498Z,6.53
2018-09-28T05:17:02.071Z,12.43
2018-09-28T05:19:37.154Z,6.57
2018-09-28T05:22:11.678Z,7.90
2018-09-28T05:24:45.966Z,10.47
2018-09-28T05:27:20.926Z,11.33
2018-09-28T05:29:56.335Z,10.03
2018-09-28T05:32:31.768Z,9.30
2018-09-28T05:35:06.145Z,7.20
2018-09-28T05:37:41.341Z,9.37
2018-09-28T05:40:16.388Z,9.10
2018-09-28T05:42:51.106Z,7.60
2018-09-28T05:45:26.159Z,8.27
2018-09-28T05:48:00.695Z,8.43
2018-09-28T05:50:35.860Z,10.63
2018-09-28T05:55:51.769Z,13.33
2018-09-28T05:58:32.204Z,13.20
2018-09-28T06:03:58.952Z,13.20
2018-09-28T06:06:33.251Z,15.73
2018-09-28T06:09:09.211Z,10.27
2018-09-28T06:11:44.563Z,9.40
2018-09-28T06:14:19.727Z,16.37
2018-09-28T06:16:54.060Z,13.20
2018-09-28T06:19:29.379Z,16.43
2018-09-28T06:22:03.720Z,14.43
2018-09-28T06:24:38.223Z,12.70
2018-09-28T06:27:15.221Z,10.13
2018-09-28T06:29:50.740Z,10.03
2018-09-28T06:32:25.875Z,9.00
2018-09-28T06:35:01.004Z,11.10
2018-09-28T06:37:35.712Z,13.07
2018-09-28T06:40:10.683Z,11.20
2018-09-28T06:42:44.991Z,10.60
2018-09-28T06:45:20.143Z,9.90
2018-09-28T06:47:55.322Z,10.80
2018-09-28T06:50:31.654Z,13.37
2018-09-28T06:53:06.851Z,11.30
2018-09-28T06:55:41.915Z,13.43
2018-09-28T06:58:17.166Z,10.90
2018-09-28T07:00:59.116Z,11.30
2018-09-28T07:03:34.177Z,8.37
2018-09-28T07:06:08.703Z,11.27
2018-09-28T07:08:43.127Z,8.60
2018-09-28T07:11:17.742Z,11.53
2018-09-28T07:13:52.856Z,10.50
2018-09-28T07:16:28.282Z,9.00
2018-09-28T07:19:03.416Z,10.33
2018-09-28T07:21:37.991Z,11.43
2018-09-28T07:24:12.378Z,11.00
2018-09-28T07:26:47.472Z,10.60
2018-09-28T07:29:22.831Z,15.20
2018-09-28T07:31:58.033Z,19.40
2018-09-28T07:34:32.442Z,12.00
2018-09-28T07:37:06.990Z,12.13
2018-09-28T07:39:42.142Z,11.10
2018-09-28T07:42:16.600Z,11.93
2018-09-28T07:44:51.791Z,12.90
2018-09-28T07:47:26.201Z,16.83
2018-09-28T07:50:01.559Z,13.00
2018-09-28T07:52:37.006Z,11.77
2018-09-28T07:55:12.554Z,14.20
2018-09-28T07:57:47.895Z,17.83
2018-09-28T08:00:22.432Z,15.87
2018-09-28T08:02:57.779Z,14.27
2018-09-28T08:05:32.848Z,14.70
2018-09-28T08:08:07.321Z,10.87
2018-09-28T08:10:41.780Z,14.60
2018-09-28T08:13:16.983Z,12.87
2018-09-28T08:15:51.710Z,12.73
2018-09-28T08:18:27.003Z,11.87
2018-09-28T08:21:01.587Z,11.47
2018-09-28T08:23:36.919Z,10.63
2018-09-28T08:26:11.435Z,14.33
2018-09-28T08:28:46.576Z,10.70
2018-09-28T08:31:22.032Z,18.83
2018-09-28T08:33:56.860Z,12.47
2018-09-28T08:36:31.284Z,9.83
2018-09-28T08:39:08.204Z,9.57
2018-09-28T08:41:42.748Z,11.43
2018-09-28T08:44:17.927Z,17.50
2018-09-28T08:46:52.206Z,13.37
2018-09-28T08:49:27.712Z,17.73
2018-09-28T08:52:03.660Z,13.90
2018-09-28T08:54:38.957Z,12.10
2018-09-28T08:57:18.012Z,16.30
2018-09-28T08:59:52.252Z,15.93
2018-09-28T09:02:26.522Z,11.70
2018-09-28T09:05:00.962Z,13.13
2018-09-28T09:07:35.256Z,15.00
2018-09-28T09:10:09.908Z,12.80
2018-09-28T09:12:45.775Z,14.67
2018-09-28T09:15:20.229Z,12.67
2018-09-28T09:18:01.066Z,14.80
2018-09-28T09:20:36.315Z,12.03
2018-09-28T09:23:10.795Z,12.67
2018-09-28T09:25:45.192Z,13.90
2018-09-28T09:28:20.051Z,17.73
2018-09-28T09:30:55.524Z,14.83
2018-09-28T09:33:30.082Z,19.60
2018-09-28T09:36:04.555Z,15.33
2018-09-28T09:38:38.988Z,15.63
2018-09-28T09:41:14.206Z,11.93
2018-09-28T09:43:49.236Z,12.40
2018-09-28T09:46:24.854Z,14.37
2018-09-28T09:49:00.144Z,10.80
2018-09-28T09:51:35.609Z,13.50
2018-09-28T09:54:10.694Z,11.60
2018-09-28T09:56:45.169Z,12.97
2018-09-28T09:59:20.229Z,11.87
2018-09-28T10:02:00.369Z,16.43
2018-09-28T10:04:34.876Z,13.00
2018-09-28T10:07:09.180Z,14.33
2018-09-28T10:09:43.473Z,12.70
2018-09-28T10:12:18.706Z,10.93
2018-09-28T10:14:53.162Z,14.37
2018-09-28T10:17:28.020Z,12.80
2018-09-28T10:20:03.236Z,16.27
2018-09-28T10:22:37.699Z,14.40
2018-09-28T10:25:13.120Z,14.73
2018-09-28T10:27:47.470Z,18.23
2018-09-28T10:30:22.843Z,12.97
2018-09-28T10:32:58.028Z,12.73
2018-09-28T10:35:32.655Z,13.20
2018-09-28T10:38:06.997Z,15.10
2018-09-28T10:40:42.162Z,17.20
2018-09-28T10:43:16.514Z,13.23
2018-09-28T10:45:51.821Z,16.63
2018-09-28T10:48:26.820Z,16.27
2018-09-28T10:51:02.000Z,13.97
2018-09-28T10:53:36.900Z,14.40
2018-09-28T10:56:11.856Z,17.03
2018-09-28T10:58:47.408Z,14.80
2018-09-28T11:01:21.771Z,12.10
2018-09-28T11:03:56.240Z,18.63
2018-09-28T11:06:30.736Z,16.67
2018-09-28T11:09:08.299Z,13.37
2018-09-28T11:11:42.936Z,13.93
2018-09-28T11:14:17.907Z,13.23
2018-09-28T11:16:53.157Z,14.63
2018-09-28T11:19:28.303Z,12.43
2018-09-28T11:22:03.540Z,18.07
2018-09-28T11:24:38.434Z,16.43
2018-09-28T11:27:13.411Z,15.90
2018-09-28T11:29:48.924Z,21.23
2018-09-28T11:32:23.793Z,11.93
2018-09-28T11:34:58.224Z,11.50
2018-09-28T11:37:32.706Z,12.50
2018-09-28T11:40:07.880Z,14.93
2018-09-28T11:42:42.383Z,12.87
2018-09-28T11:45:17.239Z,12.43
2018-09-28T11:47:51.625Z,11.90
2018-09-28T11:50:26.716Z,13.00
2018-09-28T11:53:01.740Z,13.43
2018-09-28T11:55:36.811Z,12.87
2018-09-28T11:58:11.983Z,15.60
2018-09-28T12:00:47.807Z,12.20
2018-09-28T12:03:22.435Z,11.87
2018-09-28T12:05:56.924Z,14.77
2018-09-28T12:08:31.408Z,14.83
2018-09-28T12:11:06.842Z,11.70
2018-09-28T12:13:41.936Z,10.67
2018-09-28T12:16:16.308Z,11.93
2018-09-28T12:18:51.826Z,12.40
2018-09-28T12:21:27.082Z,8.33
2018-09-28T12:24:01.581Z,11.90
2018-09-28T12:26:36.790Z,12.70
2018-09-28T12:29:12.189Z,12.23
2018-09-28T12:31:47.735Z,13.00
2018-09-28T12:34:22.359Z,10.53
2018-09-28T12:36:56.895Z,8.70
2018-09-28T12:39:32.028Z,10.90
2018-09-28T12:42:06.641Z,12.47
2018-09-28T12:44:42.015Z,10.73
2018-09-28T12:47:16.507Z,8.83
2018-09-28T12:49:51.609Z,12.10
2018-09-28T12:52:26.878Z,10.43
2018-09-28T12:55:02.132Z,10.40
2018-09-28T12:57:37.368Z,9.70
2018-09-28T13:00:12.898Z,10.83
2018-09-28T13:02:47.520Z,7.63
2018-09-28T13:05:21.979Z,6.60
2018-09-28T13:07:56.329Z,9.37
2018-09-28T13:10:35.049Z,8.60
2018-09-28T13:13:10.121Z,8.90
2018-09-28T13:15:44.559Z,7.63
2018-09-28T13:18:19.928Z,8.37
2018-09-28T13:20:54.958Z,8.37
2018-09-28T13:23:29.572Z,11.60
2018-09-28T13:26:03.831Z,8.23
2018-09-28T13:28:39.232Z,7.00
2018-09-28T13:31:14.678Z,11.20
2018-09-28T13:33:48.984Z,10.93
2018-09-28T13:36:23.773Z,11.63
2018-09-28T13:39:06.383Z,9.03
2018-09-28T13:41:40.620Z,10.80
2018-09-28T13:44:17.217Z,12.30
2018-09-28T13:46:51.556Z,10.53
2018-09-28T13:49:26.899Z,11.37
2018-09-28T13:52:02.090Z,11.10
2018-09-28T13:54:37.816Z,12.30
2018-09-28T13:57:18.885Z,11.97
2018-09-28T13:59:53.766Z,9.63
2018-09-28T14:02:29.008Z,13.77
2018-09-28T14:05:03.504Z,10.53
2018-09-28T14:07:37.904Z,13.30
2018-09-28T14:10:13.452Z,12.27
2018-09-28T14:12:48.773Z,10.83
2018-09-28T14:15:23.722Z,13.03
2018-09-28T14:17:59.188Z,12.53
2018-09-28T14:20:33.656Z,9.97
2018-09-28T14:23:08.044Z,12.50
2018-09-28T14:25:42.468Z,11.57
2018-09-28T14:28:17.588Z,14.90
2018-09-28T14:30:57.804Z,11.07
2018-09-28T14:33:33.900Z,9.93
2018-09-28T14:36:08.259Z,8.37
2018-09-28T14:38:43.399Z,11.50
2018-09-28T14:41:18.347Z,14.23
2018-09-28T14:43:52.676Z,14.60
2018-09-28T14:46:27.605Z,11.10
2018-09-28T14:49:02.901Z,11.50
2018-09-28T14:51:38.312Z,13.73
2018-09-28T14:54:14.054Z,13.13
2018-09-28T14:56:49.111Z,15.17
2018-09-28T14:59:24.128Z,13.93
2018-09-28T15:02:07.085Z,17.20
2018-09-28T15:04:41.832Z,15.50
2018-09-28T15:07:16.803Z,13.40
2018-09-28T15:09:51.363Z,13.27
2018-09-28T15:12:26.548Z,13.37
2018-09-28T15:15:01.537Z,13.80
2018-09-28T15:17:35.968Z,15.00
2018-09-28T15:20:11.010Z,14.77
2018-09-28T15:22:45.510Z,15.10
2018-09-28T15:25:19.922Z,14.13
2018-09-28T15:28:03.217Z,9.60
2018-09-28T15:30:37.730Z,13.67
2018-09-28T15:33:12.582Z,11.03
2018-09-28T15:35:47.029Z,8.13
2018-09-28T15:38:21.495Z,11.37
2018-09-28T15:40:56.500Z,12.33
2018-09-28T15:43:31.791Z,11.10
2018-09-28T15:46:07.484Z,9.63
2018-09-28T15:48:43.230Z,10.23
2018-09-28T15:51:18.167Z,7.07
2018-09-28T15:53:53.507Z,9.10
2018-09-28T15:56:27.926Z,7.10
2018-09-28T15:59:02.988Z,7.13
2018-09-28T16:01:37.339Z,9.40
2018-09-28T16:04:13.038Z,8.93
2018-09-28T16:06:47.879Z,7.63
2018-09-28T16:09:22.713Z,10.67
2018-09-28T16:11:58.191Z,7.60
2018-09-28T16:14:33.347Z,7.70
2018-09-28T16:17:08.618Z,10.03
2018-09-28T16:19:44.267Z,9.60
2018-09-28T16:22:18.907Z,10.33
2018-09-28T16:24:53.435Z,7.57
2018-09-28T16:27:27.829Z,12.90
2018-09-28T16:30:03.383Z,9.13
2018-09-28T16:32:39.047Z,7.77
2018-09-28T16:35:13.660Z,11.00
2018-09-28T16:37:48.054Z,7.20
2018-09-28T16:40:23.244Z,7.23
2018-09-28T16:42:57.544Z,7.10
2018-09-28T16:45:32.994Z,6.63
2018-09-28T16:48:08.468Z,5.40
2018-09-28T16:50:43.639Z,10.77
2018-09-28T16:53:24.563Z,7.17
2018-09-28T16:55:58.879Z,6.77
2018-09-28T16:58:33.981Z,5.27
2018-09-28T17:01:09.289Z,8.00
2018-09-28T17:03:44.904Z,4.10
2018-09-28T17:06:19.839Z,6.17
2018-09-28T17:08:55.569Z,3.53
2018-09-28T17:11:30.199Z,4.10
2018-09-28T17:14:05.276Z,4.00
2018-09-28T17:16:39.887Z,4.03
2018-09-28T17:19:14.752Z,4.23
2018-09-28T17:21:49.332Z,3.97
2018-09-28T17:24:23.854Z,4.93
2018-09-28T17:26:58.567Z,5.00
2018-09-28T17:29:34.063Z,3.20
2018-09-28T17:32:09.882Z,2.60
2018-09-28T17:34:44.192Z,2.20
2018-09-28T17:37:18.754Z,2.90
2018-09-28T17:39:53.793Z,1.80
2018-09-28T17:42:28.360Z,2.10
2018-09-28T17:45:03.832Z,2.83
2018-09-28T17:47:39.787Z,4.07
2018-09-28T17:50:15.356Z,3.80
2018-09-28T17:52:50.433Z,2.60
2018-09-28T17:55:30.184Z,2.30
2018-09-28T17:58:04.852Z,3.03
2018-09-28T18:00:47.475Z,2.30
2018-09-28T18:03:21.851Z,3.33
2018-09-28T18:05:57.667Z,1.90
2018-09-28T18:08:32.214Z,2.10
2018-09-28T18:11:06.988Z,2.20
2018-09-28T18:13:42.197Z,2.57
2018-09-28T18:16:16.626Z,2.63
2018-09-28T18:18:52.099Z,3.80
2018-09-28T18:21:26.632Z,2.40
2018-09-28T18:24:01.219Z,3.13
2018-09-28T18:26:35.847Z,2.50
2018-09-28T18:29:11.143Z,2.23
2018-09-28T18:31:46.263Z,3.03
2018-09-28T18:34:20.814Z,5.57
2018-09-28T18:36:56.130Z,3.00
2018-09-28T18:39:31.623Z,3.23
2018-09-28T18:42:06.353Z,5.30
2018-09-28T18:44:41.980Z,3.00
2018-09-28T18:47:17.136Z,4.30
2018-09-28T18:52:31.166Z,4.23
2018-09-28T18:55:06.701Z,5.97
2018-09-28T18:57:42.351Z,5.10
2018-09-28T19:00:18.082Z,6.23
2018-09-28T19:02:52.667Z,2.70
2018-09-28T19:05:27.876Z,5.07
2018-09-28T19:08:03.282Z,4.40
2018-09-28T19:10:37.672Z,9.63
2018-09-28T19:13:12.959Z,5.50
2018-09-28T19:15:47.544Z,5.23
2018-09-28T19:18:23.392Z,5.50
2018-09-28T19:20:57.728Z,7.30
2018-09-28T19:23:32.522Z,3.70
2018-09-28T19:26:06.932Z,4.07
2018-09-28T19:28:43.492Z,4.43
2018-09-28T19:31:20.070Z,5.10
2018-09-28T19:33:54.742Z,2.50
2018-09-28T19:36:29.278Z,2.53
2018-09-28T19:39:05.191Z,5.77
2018-09-28T19:41:41.869Z,4.73
2018-09-28T19:44:18.311Z,3.20
2018-09-28T19:46:53.613Z,7.10
2018-09-28T19:49:30.152Z,3.37
2018-09-28T19:52:05.782Z,4.27
2018-09-28T19:54:41.936Z,4.60
2018-09-28T19:57:16.441Z,5.20
2018-09-28T19:59:51.039Z,3.60
2018-09-28T20:02:27.270Z,6.87
2018-09-28T20:05:02.771Z,4.03
2018-09-28T20:07:37.267Z,3.07
2018-09-28T20:10:13.377Z,3.20
2018-09-28T20:12:48.728Z,3.30
2018-09-28T20:15:23.068Z,3.00
2018-09-28T20:17:58.591Z,6.27
2018-09-28T20:20:33.387Z,4.33
2018-09-28T20:23:09.231Z,6.03
2018-09-28T20:25:43.923Z,3.40
2018-09-28T20:28:19.311Z,3.30
2018-09-28T20:31:06.356Z,3.30
2018-09-28T20:33:40.789Z,6.80
2018-09-28T20:36:15.168Z,2.77
2018-09-28T20:38:50.044Z,3.17
2018-09-28T20:41:25.226Z,5.00
2018-09-28T20:43:59.576Z,4.80
2018-09-28T20:46:35.619Z,7.83
2018-09-28T20:49:10.847Z,7.17
2018-09-28T20:51:45.775Z,3.40
2018-09-28T20:54:20.833Z,9.60
2018-09-28T20:56:55.252Z,10.23
2018-09-28T20:59:30.675Z,6.53
2018-09-28T21:02:05.660Z,8.13
2018-09-28T21:04:40.906Z,3.23
2018-09-28T21:07:15.419Z,8.03
2018-09-28T21:09:51.004Z,5.40
2018-09-28T21:12:26.734Z,3.00
2018-09-28T21:15:01.266Z,3.97
2018-09-28T21:17:35.620Z,6.10
2018-09-28T21:20:10.695Z,7.33
2018-09-28T21:22:51.079Z,5.97
2018-09-28T21:25:25.591Z,8.07
2018-09-28T21:28:04.797Z,5.93
2018-09-28T21:30:39.300Z,7.17
2018-09-28T21:33:14.751Z,5.57
2018-09-28T21:35:49.301Z,5.03
2018-09-28T21:38:23.851Z,6.70
2018-09-28T21:40:58.883Z,4.20
2018-09-28T21:43:33.739Z,6.93
2018-09-28T21:46:08.652Z,4.90
2018-09-28T21:48:44.011Z,4.73
2018-09-28T21:51:19.050Z,5.23
2018-09-28T21:53:55.048Z,2.90
2018-09-28T21:59:10.787Z,4.90
2018-09-28T22:01:45.660Z,8.73
2018-09-28T22:04:20.152Z,4.80
2018-09-28T22:06:54.815Z,3.50
2018-09-28T22:09:29.292Z,5.43
2018-09-28T22:12:11.827Z,7.80
2018-09-28T22:14:46.313Z,6.03
2018-09-28T22:17:20.674Z,2.80
2018-09-28T22:19:56.006Z,6.50
2018-09-28T22:22:30.512Z,3.37
2018-09-28T22:25:05.483Z,7.03
2018-09-28T22:27:39.857Z,5.10
2018-09-28T22:30:14.933Z,5.60
2018-09-28T22:32:50.088Z,4.17
2018-09-28T22:35:24.400Z,7.43
2018-09-28T22:37:58.752Z,6.30
2018-09-28T22:40:33.760Z,3.30
2018-09-28T22:43:08.185Z,4.53
2018-09-28T22:45:43.187Z,3.20
2018-09-28T22:48:18.512Z,7.80
2018-09-28T22:50:54.272Z,4.77
2018-09-28T22:53:35.135Z,5.33
2018-09-28T22:56:09.553Z,2.50
2018-09-28T22:58:44.038Z,3.93
2018-09-28T23:01:19.000Z,3.10
2018-09-28T23:03:53.876Z,4.20
2018-09-28T23:06:28.315Z,27.47
2018-09-28T23:09:02.661Z,7.03
2018-09-28T23:11:38.062Z,5.70
2018-09-28T23:14:12.943Z,4.53
2018-09-28T23:16:48.099Z,6.03
2018-09-28T23:19:23.187Z,4.10
2018-09-28T23:21:57.659Z,4.43
2018-09-28T23:24:32.824Z,4.83
2018-09-28T23:27:07.253Z,3.10
2018-09-28T23:29:42.389Z,4.30
2018-09-28T23:32:17.585Z,4.20
2018-09-28T23:34:52.073Z,5.10
2018-09-28T23:37:27.163Z,2.43
2018-09-28T23:40:02.506Z,9.27
2018-09-28T23:42:36.908Z,3.47
2018-09-28T23:45:11.835Z,3.00
2018-09-28T23:47:46.439Z,5.53
2018-09-28T23:50:21.674Z,7.83
2018-09-28T23:52:56.660Z,3.07
2018-09-28T23:55:31.615Z,6.17
2018-09-28T23:58:06.858Z,5.73
